createdAt,value
2023-05-20T00:00:00.301Z,13.91
2023-05-20T00:01:00.232Z,13.86
2023-05-20T00:02:00.222Z,13.88
2023-05-20T00:03:00.303Z,13.88
2023-05-20T00:04:00.362Z,13.83
2023-05-20T00:05:00.408Z,13.84
2023-05-20T00:06:00.245Z,13.88
2023-05-20T00:07:00.180Z,13.90
2023-05-20T00:08:00.182Z,13.81
2023-05-20T00:09:00.222Z,13.79
2023-05-20T00:10:00.187Z,13.86
2023-05-20T00:11:00.300Z,13.84
2023-05-20T00:12:00.107Z,13.90
2023-05-20T00:13:00.147Z,13.88
2023-05-20T00:14:00.172Z,13.93
2023-05-20T00:15:00.153Z,14.01
2023-05-20T00:16:00.256Z,14.02
2023-05-20T00:17:00.241Z,13.96
2023-05-20T00:18:00.164Z,13.93
2023-05-20T00:19:00.304Z,14.01
2023-05-20T00:20:00.114Z,13.94
2023-05-20T00:21:00.170Z,13.99
2023-05-20T00:22:00.120Z,13.98
2023-05-20T00:23:00.061Z,14.01
2023-05-20T00:24:00.016Z,13.98
2023-05-20T00:25:00.023Z,14.11
2023-05-20T00:26:00.856Z,14.06
2023-05-20T00:27:00.044Z,13.94
2023-05-20T00:27:59.987Z,13.93
2023-05-20T00:28:59.989Z,13.96
2023-05-20T00:30:00.015Z,13.93
2023-05-20T00:30:59.980Z,13.88
2023-05-20T00:32:00.041Z,13.86
2023-05-20T00:32:59.990Z,13.94
2023-05-20T00:33:59.963Z,13.90
2023-05-20T00:34:59.956Z,13.90
2023-05-20T00:35:59.924Z,13.96
2023-05-20T00:36:59.969Z,13.90
2023-05-20T00:37:59.910Z,13.88
2023-05-20T00:38:59.910Z,13.90
2023-05-20T00:39:59.928Z,13.79
2023-05-20T00:40:59.904Z,13.88
2023-05-20T00:41:59.891Z,13.73
2023-05-20T00:42:59.909Z,13.80
2023-05-20T00:43:59.871Z,13.71
2023-05-20T00:44:59.867Z,13.72
2023-05-20T00:45:59.905Z,13.66
2023-05-20T00:46:59.859Z,13.65
2023-05-20T00:47:59.980Z,13.69
2023-05-20T00:48:59.827Z,13.66
2023-05-20T00:49:59.868Z,13.69
2023-05-20T00:50:59.842Z,13.72
2023-05-20T00:51:59.821Z,13.68
2023-05-20T00:52:59.924Z,13.73
2023-05-20T00:53:59.814Z,13.73
2023-05-20T00:54:59.805Z,13.72
2023-05-20T00:55:59.802Z,13.72
2023-05-20T00:56:59.774Z,13.76
2023-05-20T00:57:59.791Z,13.80
2023-05-20T00:58:59.815Z,13.66
2023-05-20T00:59:59.759Z,13.73
2023-05-20T01:00:59.765Z,13.72
2023-05-20T01:01:59.746Z,13.84
2023-05-20T01:02:59.844Z,13.79
2023-05-20T01:03:59.765Z,13.88
2023-05-20T01:04:59.752Z,13.81
2023-05-20T01:05:59.718Z,13.84
2023-05-20T01:06:59.699Z,13.88
2023-05-20T01:07:59.706Z,13.94
2023-05-20T01:08:59.725Z,13.90
2023-05-20T01:09:59.711Z,13.94
2023-05-20T01:10:59.717Z,13.88
2023-05-20T01:11:59.706Z,13.93
2023-05-20T01:12:59.671Z,13.96
2023-05-20T01:13:59.632Z,14.01
2023-05-20T01:14:59.671Z,14.01
2023-05-20T01:15:59.637Z,13.93
2023-05-20T01:16:59.620Z,13.96
2023-05-20T01:17:59.662Z,13.94
2023-05-20T01:18:59.647Z,13.99
2023-05-20T01:19:59.653Z,14.02
2023-05-20T01:20:59.593Z,13.99
2023-05-20T01:21:59.572Z,13.96
2023-05-20T01:22:59.591Z,13.99
2023-05-20T01:23:59.558Z,13.98
2023-05-20T01:24:59.583Z,14.08
2023-05-20T01:25:59.539Z,14.06
2023-05-20T01:26:59.539Z,13.98
2023-05-20T01:27:59.549Z,14.01
2023-05-20T01:28:59.588Z,13.98
2023-05-20T01:29:59.514Z,14.08
2023-05-20T01:30:59.584Z,14.02
2023-05-20T01:31:59.534Z,14.06
2023-05-20T01:32:59.521Z,14.05
2023-05-20T01:33:59.515Z,14.09
2023-05-20T01:34:59.507Z,14.08
2023-05-20T01:35:59.532Z,14.04
2023-05-20T01:36:59.475Z,14.02
2023-05-20T01:37:59.457Z,14.06
2023-05-20T01:38:59.443Z,14.01
2023-05-20T01:39:59.474Z,14.01
2023-05-20T01:40:59.483Z,14.01
2023-05-20T01:41:59.445Z,13.98
2023-05-20T01:42:59.444Z,13.94
2023-05-20T01:43:59.435Z,14.01
2023-05-20T01:44:59.428Z,13.99
2023-05-20T01:45:59.916Z,13.94
2023-05-20T01:46:59.438Z,13.94
2023-05-20T01:47:59.489Z,13.99
2023-05-20T01:48:59.382Z,13.99
2023-05-20T01:49:59.370Z,13.94
2023-05-20T01:50:59.381Z,13.96
2023-05-20T01:51:59.422Z,13.98
2023-05-20T01:52:59.365Z,13.98
2023-05-20T01:53:59.361Z,14.01
2023-05-20T01:54:59.351Z,13.96
2023-05-20T01:55:59.341Z,13.98
2023-05-20T01:56:59.360Z,13.88
2023-05-20T01:57:59.316Z,13.96
2023-05-20T01:58:59.319Z,13.91
2023-05-20T01:59:59.303Z,13.90
2023-05-20T02:00:59.339Z,13.86
2023-05-20T02:01:59.358Z,13.88
2023-05-20T02:02:59.331Z,13.88
2023-05-20T02:03:59.287Z,13.94
2023-05-20T02:04:59.273Z,13.88
2023-05-20T02:05:59.352Z,13.99
2023-05-20T02:06:59.260Z,13.90
2023-05-20T02:07:59.278Z,13.88
2023-05-20T02:08:59.261Z,13.93
2023-05-20T02:09:59.236Z,13.91
2023-05-20T02:10:59.237Z,13.75
2023-05-20T02:11:59.210Z,13.87
2023-05-20T02:12:59.279Z,13.86
2023-05-20T02:13:59.211Z,13.83
2023-05-20T02:14:59.211Z,13.75
2023-05-20T02:15:59.247Z,13.73
2023-05-20T02:16:59.216Z,13.75
2023-05-20T02:17:59.270Z,13.86
2023-05-20T02:21:02.671Z,13.75
2023-05-20T02:22:03.330Z,13.69
2023-05-20T02:22:42.885Z,13.51
2023-05-20T02:23:54.258Z,13.50
2023-05-20T02:24:26.280Z,13.48
2023-05-20T02:25:26.268Z,13.53
2023-05-20T02:26:26.270Z,13.53
2023-05-20T02:27:26.277Z,13.53
2023-05-20T02:28:26.302Z,13.46
2023-05-20T02:29:26.259Z,13.50
2023-05-20T02:30:26.255Z,13.44
2023-05-20T02:31:26.270Z,13.39
2023-05-20T02:32:26.221Z,13.38
2023-05-20T02:33:26.222Z,13.35
2023-05-20T02:34:26.405Z,13.29
2023-05-20T02:35:26.200Z,13.27
2023-05-20T02:36:26.193Z,13.27
2023-05-20T02:37:26.185Z,13.29
2023-05-20T02:38:26.200Z,13.24
2023-05-20T02:39:26.226Z,13.17
2023-05-20T02:40:26.164Z,13.22
2023-05-20T02:41:26.173Z,13.31
2023-05-20T02:42:26.180Z,13.25
2023-05-20T02:43:26.185Z,13.28
2023-05-20T02:44:26.181Z,13.32
2023-05-20T02:45:26.130Z,13.27
2023-05-20T02:46:26.185Z,13.25
2023-05-20T02:47:26.135Z,13.25
2023-05-20T02:48:26.115Z,13.22
2023-05-20T02:49:26.118Z,13.21
2023-05-20T02:50:26.122Z,13.21
2023-05-20T02:51:26.112Z,13.29
2023-05-20T02:52:26.078Z,13.29
2023-05-20T02:53:26.073Z,13.41
2023-05-20T02:54:26.064Z,13.31
2023-05-20T02:55:26.096Z,13.32
2023-05-20T02:56:26.063Z,13.21
2023-05-20T02:57:26.041Z,13.19
2023-05-20T02:58:26.020Z,13.24
2023-05-20T02:59:26.011Z,13.35
2023-05-20T03:00:26.064Z,13.31
2023-05-20T03:01:26.069Z,13.41
2023-05-20T03:02:26.041Z,13.28
2023-05-20T03:03:25.988Z,13.25
2023-05-20T03:04:26.020Z,13.27
2023-05-20T03:05:25.969Z,13.29
2023-05-20T03:06:26.026Z,13.29
2023-05-20T03:07:25.969Z,13.24
2023-05-20T03:08:25.972Z,13.16
2023-05-20T03:09:25.931Z,13.14
2023-05-20T03:10:25.986Z,13.10
2023-05-20T03:11:25.981Z,13.19
2023-05-20T03:12:25.920Z,13.13
2023-05-20T03:13:25.899Z,13.17
2023-05-20T03:14:25.932Z,13.12
2023-05-20T03:15:25.926Z,13.07
2023-05-20T03:16:25.997Z,13.09
2023-05-20T03:17:25.929Z,13.07
2023-05-20T03:18:25.896Z,13.03
2023-05-20T03:19:25.989Z,13.06
2023-05-20T03:20:25.880Z,13.03
2023-05-20T03:21:25.903Z,13.07
2023-05-20T03:22:25.855Z,13.14
2023-05-20T03:23:25.833Z,13.17
2023-05-20T03:24:25.844Z,13.16
2023-05-20T03:25:25.815Z,13.14
2023-05-20T03:26:25.829Z,13.24
2023-05-20T03:27:25.850Z,13.13
2023-05-20T03:28:25.820Z,13.13
2023-05-20T03:29:25.803Z,13.04
2023-05-20T03:30:25.805Z,13.14
2023-05-20T03:31:25.886Z,13.10
2023-05-20T03:32:25.865Z,13.12
2023-05-20T03:33:25.810Z,13.07
2023-05-20T03:34:25.783Z,13.06
2023-05-20T03:35:25.826Z,12.96
2023-05-20T03:36:25.761Z,12.98
2023-05-20T03:37:25.764Z,12.95
2023-05-20T03:38:25.761Z,13.03
2023-05-20T03:39:25.727Z,12.95
2023-05-20T03:40:25.702Z,12.98
2023-05-20T03:41:25.735Z,12.96
2023-05-20T03:42:25.713Z,12.92
2023-05-20T03:43:25.747Z,12.85
2023-05-20T03:44:25.675Z,12.91
2023-05-20T03:45:25.679Z,12.84
2023-05-20T03:46:25.784Z,12.94
2023-05-20T03:47:25.798Z,13.04
2023-05-20T03:48:25.720Z,13.01
2023-05-20T03:49:25.663Z,12.99
2023-05-20T03:50:25.668Z,13.07
2023-05-20T03:51:25.630Z,13.04
2023-05-20T03:52:25.627Z,13.01
2023-05-20T03:53:25.880Z,13.07
2023-05-20T03:54:25.598Z,13.14
2023-05-20T03:55:25.591Z,13.06
2023-05-20T03:56:25.604Z,13.01
2023-05-20T03:57:25.598Z,13.16
2023-05-20T03:58:25.572Z,13.01
2023-05-20T03:59:25.630Z,13.09
2023-05-20T04:00:25.577Z,13.04
2023-05-20T04:01:25.573Z,13.01
2023-05-20T04:02:25.629Z,13.01
2023-05-20T04:03:25.626Z,13.06
2023-05-20T04:04:25.584Z,13.10
2023-05-20T04:05:25.558Z,12.99
2023-05-20T04:06:25.504Z,13.09
2023-05-20T04:07:25.506Z,13.03
2023-05-20T04:08:25.513Z,12.99
2023-05-20T04:09:25.538Z,12.95
2023-05-20T04:10:25.476Z,13.04
2023-05-20T04:11:25.506Z,12.99
2023-05-20T04:12:25.484Z,13.01
2023-05-20T04:13:25.508Z,13.04
2023-05-20T04:14:25.527Z,12.98
2023-05-20T04:15:25.496Z,12.92
2023-05-20T04:16:25.506Z,13.01
2023-05-20T04:17:25.468Z,12.95
2023-05-20T04:18:25.451Z,12.98
2023-05-20T04:19:25.462Z,12.94
2023-05-20T04:20:25.477Z,12.96
2023-05-20T04:21:25.426Z,13.04
2023-05-20T04:22:25.412Z,12.98
2023-05-20T04:23:25.424Z,12.96
2023-05-20T04:24:25.421Z,12.96
2023-05-20T04:25:25.407Z,13.09
2023-05-20T04:26:25.387Z,12.96
2023-05-20T04:27:25.397Z,12.89
2023-05-20T04:28:25.373Z,12.84
2023-05-20T04:29:25.358Z,12.85
2023-05-20T04:30:25.388Z,12.92
2023-05-20T04:31:25.386Z,13.04
2023-05-20T04:32:25.363Z,12.94
2023-05-20T04:33:25.326Z,13.03
2023-05-20T04:34:25.313Z,13.10
2023-05-20T04:35:25.328Z,13.07
2023-05-20T04:36:25.325Z,13.07
2023-05-20T04:37:25.288Z,13.12
2023-05-20T04:38:26.467Z,13.16
2023-05-20T04:39:25.292Z,13.17
2023-05-20T04:40:25.285Z,13.10
2023-05-20T04:41:25.382Z,13.24
2023-05-20T04:42:25.272Z,13.21
2023-05-20T04:43:25.255Z,13.29
2023-05-20T04:44:25.224Z,13.32
2023-05-20T04:45:25.222Z,13.44
2023-05-20T04:46:25.357Z,13.44
2023-05-20T04:47:25.295Z,13.31
2023-05-20T04:48:25.206Z,13.31
2023-05-20T04:49:25.218Z,13.41
2023-05-20T04:50:25.246Z,13.43
2023-05-20T04:51:25.194Z,13.48
2023-05-20T04:52:25.224Z,13.39
2023-05-20T04:53:25.178Z,13.44
2023-05-20T04:54:25.193Z,13.44
2023-05-20T04:55:25.164Z,13.55
2023-05-20T04:56:25.164Z,13.48
2023-05-20T04:57:25.163Z,13.47
2023-05-20T04:58:25.449Z,13.54
2023-05-20T04:59:25.166Z,13.50
2023-05-20T05:00:25.149Z,13.54
2023-05-20T05:01:25.155Z,13.55
2023-05-20T05:02:25.120Z,13.54
2023-05-20T05:03:25.115Z,13.62
2023-05-20T05:04:25.191Z,13.55
2023-05-20T05:05:25.101Z,13.62
2023-05-20T05:06:25.101Z,13.63
2023-05-20T05:07:25.090Z,13.54
2023-05-20T05:08:25.081Z,13.55
2023-05-20T05:09:25.071Z,13.53
2023-05-20T05:10:25.108Z,13.61
2023-05-20T05:11:25.076Z,13.54
2023-05-20T05:12:25.038Z,13.61
2023-05-20T05:13:25.080Z,13.65
2023-05-20T05:14:25.217Z,13.68
2023-05-20T05:15:25.021Z,13.61
2023-05-20T05:16:25.113Z,13.55
2023-05-20T05:17:25.055Z,13.68
2023-05-20T05:18:25.020Z,13.57
2023-05-20T05:19:25.120Z,13.55
2023-05-20T05:20:25.019Z,13.63
2023-05-20T05:21:24.980Z,13.62
2023-05-20T05:22:25.047Z,13.55
2023-05-20T05:23:24.958Z,13.55
2023-05-20T05:24:24.977Z,13.61
2023-05-20T05:25:24.955Z,13.65
2023-05-20T05:26:24.941Z,13.51
2023-05-20T05:27:24.951Z,13.57
2023-05-20T05:28:24.983Z,13.61
2023-05-20T05:29:24.923Z,13.53
2023-05-20T05:30:24.933Z,13.51
2023-05-20T05:31:24.920Z,13.50
2023-05-20T05:32:24.986Z,13.55
2023-05-20T05:33:24.955Z,13.48
2023-05-20T05:34:24.968Z,13.63
2023-05-20T05:35:25.042Z,13.54
2023-05-20T05:36:24.868Z,13.54
2023-05-20T05:37:24.859Z,13.55
2023-05-20T05:38:24.866Z,13.65
2023-05-20T05:39:24.852Z,13.50
2023-05-20T05:40:24.878Z,13.50
2023-05-20T05:41:24.852Z,13.54
2023-05-20T05:42:24.829Z,13.63
2023-05-20T05:43:24.825Z,13.61
2023-05-20T05:44:24.841Z,13.53
2023-05-20T05:45:24.799Z,13.62
2023-05-20T05:46:24.859Z,13.71
2023-05-20T05:47:24.822Z,13.61
2023-05-20T05:48:24.808Z,13.62
2023-05-20T05:49:24.770Z,13.59
2023-05-20T05:50:24.756Z,13.53
2023-05-20T05:51:24.804Z,13.61
2023-05-20T05:52:24.861Z,13.48
2023-05-20T05:53:24.779Z,13.57
2023-05-20T05:54:24.734Z,13.61
2023-05-20T05:55:24.766Z,13.62
2023-05-20T05:56:24.726Z,13.53
2023-05-20T05:57:24.698Z,13.63
2023-05-20T05:58:24.750Z,13.65
2023-05-20T05:59:24.706Z,13.63
2023-05-20T06:00:24.733Z,13.61
2023-05-20T06:01:24.749Z,13.66
2023-05-20T06:02:24.811Z,13.57
2023-05-20T06:03:24.772Z,13.62
2023-05-20T06:04:25.076Z,13.66
2023-05-20T06:05:25.814Z,13.71
2023-05-20T06:06:24.680Z,13.69
2023-05-20T06:07:24.656Z,13.80
2023-05-20T06:08:24.683Z,13.76
2023-05-20T06:09:24.652Z,13.80
2023-05-20T06:10:24.675Z,13.69
2023-05-20T06:11:24.632Z,13.73
2023-05-20T06:12:24.594Z,13.79
2023-05-20T06:13:24.633Z,13.93
2023-05-20T06:14:24.619Z,13.93
2023-05-20T06:15:24.604Z,13.79
2023-05-20T06:16:24.823Z,13.79
2023-05-20T06:17:24.593Z,13.86
2023-05-20T06:18:24.574Z,13.80
2023-05-20T06:19:24.616Z,13.75
2023-05-20T06:20:24.573Z,13.84
2023-05-20T06:21:24.557Z,13.73
2023-05-20T06:22:24.592Z,13.90
2023-05-20T06:23:24.564Z,13.90
2023-05-20T06:24:24.908Z,13.79
2023-05-20T06:25:24.540Z,13.91
2023-05-20T06:26:24.537Z,13.93
2023-05-20T06:27:24.520Z,13.94
2023-05-20T06:28:24.561Z,13.72
2023-05-20T06:29:24.500Z,13.80
2023-05-20T06:30:24.545Z,13.93
2023-05-20T06:31:24.540Z,13.96
2023-05-20T06:32:24.512Z,14.16
2023-05-20T06:33:24.491Z,13.96
2023-05-20T06:34:24.513Z,14.16
2023-05-20T06:35:24.475Z,14.17
2023-05-20T06:36:24.465Z,14.30
2023-05-20T06:37:24.542Z,14.09
2023-05-20T06:38:24.457Z,14.06
2023-05-20T06:39:24.434Z,14.04
2023-05-20T06:40:24.480Z,14.13
2023-05-20T06:41:24.434Z,14.13
2023-05-20T06:42:24.400Z,14.11
2023-05-20T06:43:24.404Z,14.12
2023-05-20T06:44:24.395Z,14.26
2023-05-20T06:45:24.415Z,14.29
2023-05-20T06:46:24.460Z,14.36
2023-05-20T06:47:24.391Z,14.42
2023-05-20T06:48:24.379Z,14.29
2023-05-20T06:49:24.359Z,14.02
2023-05-20T06:50:24.335Z,14.12
2023-05-20T06:51:24.335Z,14.19
2023-05-20T06:52:24.363Z,14.11
2023-05-20T06:53:24.336Z,14.20
2023-05-20T06:54:24.354Z,14.23
2023-05-20T06:55:24.317Z,14.34
2023-05-20T06:56:24.316Z,14.20
2023-05-20T06:57:24.304Z,14.08
2023-05-20T06:58:24.340Z,13.88
2023-05-20T06:59:24.300Z,14.04
2023-05-20T07:00:24.298Z,14.17
2023-05-20T07:01:24.270Z,14.23
2023-05-20T07:02:24.274Z,14.21
2023-05-20T07:03:24.255Z,14.30
2023-05-20T07:04:24.517Z,14.12
2023-05-20T07:05:24.227Z,14.08
2023-05-20T07:06:24.204Z,14.13
2023-05-20T07:07:24.218Z,14.26
2023-05-20T07:08:24.193Z,14.45
2023-05-20T07:09:24.195Z,14.57
2023-05-20T07:10:24.245Z,14.67
2023-05-20T07:11:24.194Z,14.80
2023-05-20T07:12:24.156Z,14.83
2023-05-20T07:13:24.225Z,14.95
2023-05-20T07:14:24.192Z,15.05
2023-05-20T07:15:24.183Z,15.07
2023-05-20T07:16:24.206Z,15.13
2023-05-20T07:17:24.162Z,15.18
2023-05-20T07:18:24.112Z,15.18
2023-05-20T07:19:24.315Z,15.15
2023-05-20T07:20:24.117Z,15.23
2023-05-20T07:21:24.116Z,15.37
2023-05-20T07:22:24.153Z,14.82
2023-05-20T07:23:24.121Z,14.87
2023-05-20T07:24:24.092Z,15.01
2023-05-20T07:25:24.063Z,15.25
2023-05-20T07:26:24.060Z,15.34
2023-05-20T07:27:24.060Z,15.58
2023-05-20T07:28:24.134Z,15.68
2023-05-20T07:29:24.056Z,15.58
2023-05-20T07:30:24.083Z,15.64
2023-05-20T07:31:24.044Z,15.70
2023-05-20T07:32:24.074Z,15.22
2023-05-20T07:33:24.013Z,15.19
2023-05-20T07:34:24.055Z,15.35
2023-05-20T07:35:24.003Z,15.53
2023-05-20T07:36:24.012Z,15.73
2023-05-20T07:37:24.012Z,15.88
2023-05-20T07:38:23.980Z,15.85
2023-05-20T07:39:23.994Z,15.78
2023-05-20T07:40:24.110Z,15.22
2023-05-20T07:41:23.956Z,15.22
2023-05-20T07:42:23.979Z,15.31
2023-05-20T07:43:23.977Z,15.15
2023-05-20T07:44:23.924Z,15.15
2023-05-20T07:45:23.965Z,15.27
2023-05-20T07:46:23.999Z,15.35
2023-05-20T07:47:23.928Z,15.25
2023-05-20T07:48:23.938Z,15.12
2023-05-20T07:49:23.904Z,15.15
2023-05-20T07:50:23.880Z,15.16
2023-05-20T07:51:23.893Z,14.86
2023-05-20T07:52:23.914Z,14.66
2023-05-20T07:53:23.881Z,14.49
2023-05-20T07:54:23.865Z,14.54
2023-05-20T07:55:23.873Z,14.80
2023-05-20T07:56:23.852Z,14.74
2023-05-20T07:57:23.843Z,14.86
2023-05-20T07:58:23.874Z,14.57
2023-05-20T07:59:23.853Z,14.64
2023-05-20T08:00:23.881Z,14.71
2023-05-20T08:01:23.818Z,14.67
2023-05-20T08:02:23.853Z,14.75
2023-05-20T08:03:23.907Z,15.11
2023-05-20T08:04:23.887Z,15.18
2023-05-20T08:05:23.784Z,14.91
2023-05-20T08:06:23.810Z,15.07
2023-05-20T08:07:23.752Z,15.27
2023-05-20T08:08:23.764Z,15.43
2023-05-20T08:09:23.753Z,15.25
2023-05-20T08:10:23.960Z,15.00
2023-05-20T08:11:23.720Z,15.28
2023-05-20T08:12:23.733Z,15.38
2023-05-20T08:13:23.731Z,15.34
2023-05-20T08:14:23.725Z,15.81
2023-05-20T08:15:23.693Z,16.07
2023-05-20T08:16:23.734Z,16.47
2023-05-20T08:17:23.727Z,16.41
2023-05-20T08:18:23.671Z,16.45
2023-05-20T08:19:23.767Z,16.55
2023-05-20T08:20:23.690Z,16.62
2023-05-20T08:21:23.660Z,16.34
2023-05-20T08:22:23.702Z,16.42
2023-05-20T08:23:23.642Z,16.40
2023-05-20T08:24:23.656Z,16.36
2023-05-20T08:25:23.653Z,16.14
2023-05-20T08:26:23.636Z,16.47
2023-05-20T08:27:23.625Z,16.60
2023-05-20T08:28:23.634Z,16.63
2023-05-20T08:29:23.593Z,16.57
2023-05-20T08:30:23.596Z,16.47
2023-05-20T08:31:23.606Z,16.29
2023-05-20T08:32:23.684Z,15.86
2023-05-20T08:33:23.576Z,15.95
2023-05-20T08:34:23.622Z,15.80
2023-05-20T08:35:24.802Z,15.89
2023-05-20T08:36:23.559Z,15.81
2023-05-20T08:37:23.536Z,15.89
2023-05-20T08:38:23.582Z,16.32
2023-05-20T08:39:23.524Z,16.34
2023-05-20T08:40:23.593Z,16.62
2023-05-20T08:41:23.501Z,16.36
2023-05-20T08:42:23.537Z,16.44
2023-05-20T08:43:23.485Z,16.91
2023-05-20T08:44:23.514Z,17.24
2023-05-20T08:45:23.478Z,16.99
2023-05-20T08:46:23.596Z,16.78
2023-05-20T08:47:23.474Z,16.92
2023-05-20T08:48:23.473Z,16.90
2023-05-20T08:49:23.542Z,16.92
2023-05-20T08:50:23.457Z,17.43
2023-05-20T08:51:23.849Z,17.71
2023-05-20T08:52:23.474Z,17.45
2023-05-20T08:53:23.475Z,17.39
2023-05-20T08:54:23.437Z,17.84
2023-05-20T08:55:23.418Z,18.13
2023-05-20T08:56:23.414Z,18.50
2023-05-20T08:57:23.429Z,18.10
2023-05-20T08:58:23.596Z,18.07
2023-05-20T08:59:23.404Z,18.17
2023-05-20T09:00:23.388Z,17.84
2023-05-20T09:01:23.413Z,17.94
2023-05-20T09:02:23.417Z,18.65
2023-05-20T09:03:23.371Z,18.68
2023-05-20T09:04:23.417Z,18.97
2023-05-20T09:05:23.368Z,18.87
2023-05-20T09:06:23.366Z,18.32
2023-05-20T09:07:23.345Z,17.60
2023-05-20T09:08:23.336Z,17.47
2023-05-20T09:09:23.334Z,17.55
2023-05-20T09:10:23.627Z,17.96
2023-05-20T09:11:23.326Z,17.96
2023-05-20T09:12:23.298Z,17.45
2023-05-20T09:13:24.008Z,17.28
2023-05-20T09:14:23.290Z,17.96
2023-05-20T09:15:23.285Z,17.66
2023-05-20T09:16:23.392Z,18.14
2023-05-20T09:17:23.315Z,18.42
2023-05-20T09:18:23.241Z,18.60
2023-05-20T09:19:24.437Z,18.66
2023-05-20T09:20:23.254Z,18.71
2023-05-20T09:21:23.235Z,18.68
2023-05-20T09:22:23.253Z,18.84
2023-05-20T09:23:23.246Z,18.96
2023-05-20T09:24:23.250Z,19.16
2023-05-20T09:25:24.024Z,18.90
2023-05-20T09:26:23.198Z,18.04
2023-05-20T09:27:23.188Z,18.62
2023-05-20T09:28:23.211Z,18.21
2023-05-20T09:29:23.197Z,17.54
2023-05-20T09:30:23.158Z,17.55
2023-05-20T09:31:23.170Z,17.57
2023-05-20T09:32:23.167Z,17.86
2023-05-20T09:33:23.155Z,17.92
2023-05-20T09:34:23.161Z,18.36
2023-05-20T09:35:23.125Z,19.06
2023-05-20T09:36:23.121Z,19.82
2023-05-20T09:37:23.125Z,20.08
2023-05-20T09:38:23.104Z,20.17
2023-05-20T09:39:23.106Z,20.56
2023-05-20T09:40:23.139Z,20.04
2023-05-20T09:41:23.093Z,19.55
2023-05-20T09:42:23.099Z,20.02
2023-05-20T09:43:23.069Z,19.53
2023-05-20T09:44:23.088Z,19.65
2023-05-20T09:45:23.056Z,19.45
2023-05-20T09:46:23.168Z,20.31
2023-05-20T09:47:23.089Z,18.91
2023-05-20T09:48:23.038Z,18.86
2023-05-20T09:49:23.004Z,18.36
2023-05-20T09:50:23.015Z,18.50
2023-05-20T09:51:23.010Z,18.44
2023-05-20T09:52:23.030Z,18.26
2023-05-20T09:53:23.029Z,18.69
2023-05-20T09:54:22.984Z,18.99
2023-05-20T09:55:23.008Z,18.82
2023-05-20T09:56:22.973Z,19.39
2023-05-20T09:57:22.966Z,19.49
2023-05-20T09:58:22.983Z,19.27
2023-05-20T09:59:22.944Z,18.78
2023-05-20T10:00:22.963Z,19.55
2023-05-20T10:01:22.948Z,20.13
2023-05-20T10:02:23.011Z,19.58
2023-05-20T10:03:23.145Z,19.78
2023-05-20T10:04:22.946Z,20.42
2023-05-20T10:05:22.912Z,19.05
2023-05-20T10:06:22.909Z,18.76
2023-05-20T10:07:34.031Z,18.74
2023-05-20T10:08:23.893Z,19.42
2023-05-20T10:09:22.914Z,20.08
2023-05-20T10:10:22.930Z,19.62
2023-05-20T10:11:22.876Z,19.13
2023-05-20T10:12:22.867Z,18.14
2023-05-20T10:13:22.853Z,17.94
2023-05-20T10:14:22.840Z,18.23
2023-05-20T10:15:22.859Z,19.30
2023-05-20T10:16:23.476Z,19.02
2023-05-20T10:17:22.839Z,19.01
2023-05-20T10:18:22.808Z,18.83
2023-05-20T10:19:22.996Z,19.16
2023-05-20T10:20:22.824Z,19.72
2023-05-20T10:21:22.778Z,18.84
2023-05-20T10:22:22.818Z,18.79
2023-05-20T10:23:22.777Z,18.97
2023-05-20T10:24:22.776Z,17.92
2023-05-20T10:25:22.765Z,18.10
2023-05-20T10:26:22.761Z,18.59
2023-05-20T10:27:22.753Z,19.30
2023-05-20T10:28:22.893Z,19.90
2023-05-20T10:29:22.730Z,20.10
2023-05-20T10:30:22.771Z,20.41
2023-05-20T10:31:22.707Z,21.30
2023-05-20T10:32:22.755Z,21.83
2023-05-20T10:33:22.744Z,21.66
2023-05-20T10:34:22.729Z,21.26
2023-05-20T10:35:22.698Z,21.38
2023-05-20T10:36:22.684Z,21.51
2023-05-20T10:37:22.657Z,21.18
2023-05-20T10:38:22.682Z,21.53
2023-05-20T10:39:22.679Z,21.05
2023-05-20T10:40:22.729Z,21.15
2023-05-20T10:41:22.661Z,21.85
2023-05-20T10:42:22.674Z,19.94
2023-05-20T10:43:24.026Z,19.32
2023-05-20T10:44:22.640Z,18.94
2023-05-20T10:45:22.616Z,19.86
2023-05-20T10:47:25.820Z,20.50
2023-05-20T10:48:22.711Z,20.01
2023-05-20T10:49:26.832Z,20.79
2023-05-20T10:50:23.567Z,21.26
2023-05-20T10:51:22.595Z,21.13
2023-05-20T10:52:22.594Z,20.68
2023-05-20T10:53:32.790Z,20.23
2023-05-20T10:54:23.555Z,19.98
2023-05-20T10:55:22.601Z,19.82
2023-05-20T10:56:22.560Z,18.71
2023-05-20T10:57:22.515Z,18.04
2023-05-20T10:58:22.566Z,18.10
2023-05-20T10:59:22.627Z,18.36
2023-05-20T11:00:22.508Z,18.65
2023-05-20T11:01:22.552Z,18.75
2023-05-20T11:02:22.511Z,18.75
2023-05-20T11:03:22.611Z,18.87
2023-05-20T11:04:22.501Z,18.34
2023-05-20T11:05:22.462Z,18.04
2023-05-20T11:06:22.466Z,17.95
2023-05-20T11:07:22.492Z,17.83
2023-05-20T11:08:28.901Z,17.83
2023-05-20T11:09:23.497Z,17.62
2023-05-20T11:10:22.442Z,17.98
2023-05-20T11:11:22.428Z,17.84
2023-05-20T11:12:22.514Z,18.04
2023-05-20T11:13:22.456Z,18.16
2023-05-20T11:14:22.439Z,18.02
2023-05-20T11:15:22.426Z,17.98
2023-05-20T11:16:22.480Z,17.79
2023-05-20T11:17:22.401Z,17.21
2023-05-20T11:18:22.380Z,16.90
2023-05-20T11:19:22.405Z,17.14
2023-05-20T11:20:22.383Z,17.27
2023-05-20T11:21:22.657Z,17.63
2023-05-20T11:22:22.360Z,17.55
2023-05-20T11:23:22.339Z,18.07
2023-05-20T11:24:22.353Z,18.16
2023-05-20T11:25:22.384Z,17.70
2023-05-20T11:26:22.361Z,17.77
2023-05-20T11:27:22.405Z,17.21
2023-05-20T11:28:22.325Z,17.21
2023-05-20T11:29:22.291Z,17.38
2023-05-20T11:30:22.287Z,16.81
2023-05-20T11:31:22.285Z,17.10
2023-05-20T11:32:22.385Z,17.20
2023-05-20T11:33:22.380Z,17.32
2023-05-20T11:34:24.827Z,17.46
2023-05-20T11:35:22.234Z,17.70
2023-05-20T11:36:28.061Z,17.81
2023-05-20T11:37:23.276Z,17.36
2023-05-20T11:38:22.222Z,16.87
2023-05-20T11:39:22.359Z,17.07
2023-05-20T11:40:22.223Z,17.18
2023-05-20T11:41:22.199Z,16.91
2023-05-20T11:42:22.231Z,17.25
2023-05-20T11:43:22.175Z,17.25
2023-05-20T11:44:22.218Z,17.00
2023-05-20T11:45:22.235Z,16.90
2023-05-20T11:46:22.218Z,17.24
2023-05-20T11:47:22.762Z,17.07
2023-05-20T11:48:22.198Z,17.38
2023-05-20T11:49:22.173Z,17.43
2023-05-20T11:50:22.223Z,17.40
2023-05-20T11:51:22.182Z,17.70
2023-05-20T11:52:22.138Z,17.47
2023-05-20T11:53:22.113Z,17.76
2023-05-20T11:54:22.096Z,17.95
2023-05-20T11:55:22.112Z,18.35
2023-05-20T11:56:22.136Z,18.42
2023-05-20T11:57:22.116Z,18.60
2023-05-20T11:58:22.108Z,18.19
2023-05-20T11:59:22.076Z,18.13
2023-05-20T12:00:22.136Z,18.47
2023-05-20T12:01:23.286Z,17.99
2023-05-20T12:02:22.226Z,18.25
2023-05-20T12:03:22.222Z,18.19
2023-05-20T12:04:22.161Z,18.59
2023-05-20T12:05:22.062Z,19.34
2023-05-20T12:06:22.004Z,19.95
2023-05-20T12:07:22.005Z,20.34
2023-05-20T12:08:22.005Z,20.75
2023-05-20T12:09:22.024Z,20.10
2023-05-20T12:10:22.014Z,19.57
2023-05-20T12:11:22.013Z,19.10
2023-05-20T12:12:22.066Z,18.50
2023-05-20T12:13:21.967Z,18.28
2023-05-20T12:14:22.070Z,18.35
2023-05-20T12:15:23.049Z,18.46
2023-05-20T12:16:22.065Z,18.13
2023-05-20T12:17:21.946Z,17.95
2023-05-20T12:18:21.990Z,18.19
2023-05-20T12:19:21.947Z,18.91
2023-05-20T12:20:21.933Z,19.39
2023-05-20T12:21:22.006Z,19.38
2023-05-20T12:22:21.917Z,19.01
2023-05-20T12:23:21.929Z,18.78
2023-05-20T12:24:21.922Z,18.96
2023-05-20T12:25:21.895Z,18.66
2023-05-20T12:26:21.955Z,18.71
2023-05-20T12:27:22.357Z,18.66
2023-05-20T12:28:21.896Z,18.91
2023-05-20T12:29:21.869Z,18.71
2023-05-20T12:30:21.878Z,19.05
2023-05-20T12:31:21.875Z,18.93
2023-05-20T12:32:21.834Z,19.07
2023-05-20T12:33:21.880Z,19.42
2023-05-20T12:34:21.852Z,19.70
2023-05-20T12:35:21.783Z,18.71
2023-05-20T12:36:21.811Z,18.36
2023-05-20T12:37:21.854Z,18.62
2023-05-20T12:38:21.847Z,18.82
2023-05-20T12:39:21.836Z,18.91
2023-05-20T12:40:21.816Z,18.96
2023-05-20T12:41:21.767Z,18.72
2023-05-20T12:42:21.747Z,18.86
2023-05-20T12:43:21.742Z,18.57
2023-05-20T12:44:21.841Z,18.68
2023-05-20T12:45:21.828Z,18.69
2023-05-20T12:46:21.736Z,18.64
2023-05-20T12:47:21.878Z,18.57
2023-05-20T12:48:21.730Z,18.16
2023-05-20T12:49:21.690Z,17.76
2023-05-20T12:50:21.689Z,17.63
2023-05-20T12:51:21.743Z,17.43
2023-05-20T12:52:22.819Z,17.35
2023-05-20T12:53:21.670Z,17.66
2023-05-20T12:54:21.711Z,17.54